createdAt,value
2022-09-05T00:00:23.601Z,5.85
2022-09-05T00:02:56.310Z,6.10
2022-09-05T00:05:33.693Z,6.90
2022-09-05T00:08:14.632Z,5.28
2022-09-05T00:11:39.830Z,5.18
2022-09-05T00:14:07.682Z,4.63
2022-09-05T00:16:52.239Z,5.30
2022-09-05T00:24:22.790Z,5.57
2022-09-05T00:24:32.632Z,5.07
2022-09-05T00:26:13.309Z,4.30
2022-09-05T00:29:03.072Z,4.70
2022-09-05T00:31:53.910Z,4.93
2022-09-05T00:34:59.928Z,4.20
2022-09-05T00:37:34.120Z,3.85
2022-09-05T00:40:19.117Z,4.60
2022-09-05T00:42:53.235Z,3.95
2022-09-05T00:45:31.314Z,4.20
2022-09-05T00:48:07.755Z,4.07
2022-09-05T00:50:56.379Z,4.50
2022-09-05T00:53:29.992Z,3.60
2022-09-05T00:56:27.971Z,4.30
2022-09-05T00:59:35.172Z,3.83
2022-09-05T01:02:28.288Z,3.97
2022-09-05T01:05:06.480Z,3.97
2022-09-05T01:07:46.650Z,3.65
2022-09-05T01:10:38.849Z,3.50
2022-09-05T01:13:21.528Z,3.75
2022-09-05T01:16:00.213Z,3.78
2022-09-05T01:18:43.469Z,4.10
2022-09-05T01:21:35.367Z,4.00
2022-09-05T01:24:28.016Z,3.83
2022-09-05T01:28:25.244Z,4.05
2022-09-05T01:30:36.107Z,4.30
2022-09-05T01:33:19.841Z,4.10
2022-09-05T01:36:04.227Z,3.47
2022-09-05T01:38:36.935Z,4.00
2022-09-05T01:41:21.806Z,3.75
2022-09-05T01:44:07.195Z,4.25
2022-09-05T01:46:35.190Z,4.78
2022-09-05T01:49:14.040Z,3.78
2022-09-05T01:52:04.901Z,4.15
2022-09-05T01:54:47.556Z,4.25
2022-09-05T01:57:35.837Z,3.97
2022-09-05T02:00:12.609Z,3.65
2022-09-05T02:03:07.032Z,4.10
2022-09-05T02:05:51.860Z,3.90
2022-09-05T02:11:12.746Z,4.85
2022-09-05T02:13:46.126Z,3.85
2022-09-05T02:16:23.059Z,3.50
2022-09-05T02:19:29.416Z,4.30
2022-09-05T02:22:12.067Z,3.88
2022-09-05T02:24:45.627Z,4.47
2022-09-05T02:28:05.227Z,4.10
2022-09-05T02:30:24.597Z,3.90
2022-09-05T02:32:55.259Z,4.20
2022-09-05T02:35:40.542Z,4.30
2022-09-05T02:40:53.497Z,4.03
2022-09-05T02:45:10.682Z,3.30
2022-09-05T02:45:18.521Z,3.85
2022-09-05T02:47:16.387Z,3.78
2022-09-05T02:52:46.254Z,3.80
2022-09-05T02:57:34.569Z,3.50
2022-09-05T02:59:11.302Z,3.60
2022-09-05T03:01:52.484Z,4.20
2022-09-05T03:04:29.771Z,3.60
2022-09-05T03:07:14.639Z,3.53
2022-09-05T03:12:50.410Z,3.95
2022-09-05T03:15:38.323Z,3.53
2022-09-05T03:18:28.085Z,3.50
2022-09-05T03:21:29.930Z,3.50
2022-09-05T03:24:02.459Z,4.30
2022-09-05T03:26:38.110Z,4.53
2022-09-05T03:29:45.919Z,3.85
2022-09-05T03:32:33.777Z,3.58
2022-09-05T03:35:32.383Z,4.30
2022-09-05T03:38:20.619Z,3.30
2022-09-05T03:41:02.766Z,4.15
2022-09-05T03:44:06.819Z,3.95
2022-09-05T03:47:12.813Z,3.92
2022-09-05T03:54:51.144Z,3.90
2022-09-05T03:57:14.440Z,3.58
2022-09-05T03:57:14.577Z,3.25
2022-09-05T03:59:28.817Z,3.28
2022-09-05T04:04:54.896Z,3.75
2022-09-05T04:08:18.262Z,4.25
2022-09-05T04:08:34.021Z,3.35
2022-09-05T04:11:02.048Z,3.03
2022-09-05T04:13:51.414Z,3.95
2022-09-05T04:16:24.110Z,3.55
2022-09-05T04:18:56.521Z,3.15
2022-09-05T04:21:35.009Z,3.20
2022-09-05T04:24:39.564Z,3.97
2022-09-05T04:27:27.754Z,3.67
2022-09-05T04:29:58.530Z,3.55
2022-09-05T04:32:38.047Z,3.50
2022-09-05T04:35:19.878Z,4.13
2022-09-05T04:38:13.270Z,4.97
2022-09-05T04:40:48.734Z,5.07
2022-09-05T04:43:18.084Z,6.32
2022-09-05T04:46:15.717Z,5.80
2022-09-05T04:48:59.713Z,4.82
2022-09-05T04:52:00.875Z,4.95
2022-09-05T04:54:45.700Z,5.35
2022-09-05T04:57:27.911Z,4.35
2022-09-05T05:05:34.410Z,3.90
2022-09-05T05:06:09.585Z,4.45
2022-09-05T05:06:14.078Z,4.60
2022-09-05T05:08:42.728Z,5.10
2022-09-05T05:17:59.309Z,4.75
2022-09-05T05:18:10.551Z,4.45
2022-09-05T05:18:14.227Z,4.43
2022-09-05T05:20:42.454Z,5.13
2022-09-05T05:23:15.322Z,4.53
2022-09-05T05:25:55.043Z,4.43
2022-09-05T05:28:43.367Z,4.70
2022-09-05T05:31:16.873Z,4.18
2022-09-05T05:33:49.025Z,3.90
2022-09-05T05:36:38.968Z,4.10
2022-09-05T05:39:14.219Z,4.75
2022-09-05T05:41:49.817Z,4.50
2022-09-05T05:44:19.234Z,4.93
2022-09-05T05:46:53.925Z,4.53
2022-09-05T05:49:29.047Z,4.70
2022-09-05T05:52:14.105Z,5.43
2022-09-05T05:55:45.223Z,5.03
2022-09-05T05:58:00.390Z,5.90
2022-09-05T06:00:57.816Z,5.47
2022-09-05T06:03:46.124Z,5.72
2022-09-05T06:06:17.307Z,6.93
2022-09-05T06:11:30.692Z,6.57
2022-09-05T06:14:55.119Z,6.80
2022-09-05T06:15:26.649Z,6.75
2022-09-05T06:17:53.830Z,7.40
2022-09-05T06:22:10.652Z,7.30
2022-09-05T06:24:16.837Z,7.53
2022-09-05T06:27:12.959Z,6.78
2022-09-05T06:30:08.926Z,6.40
2022-09-05T06:33:09.773Z,6.70
2022-09-05T06:35:39.234Z,7.18
2022-09-05T06:38:14.184Z,7.47
2022-09-05T06:41:01.508Z,6.68
2022-09-05T06:44:01.751Z,6.18
2022-09-05T06:46:55.119Z,7.22
2022-09-05T06:49:51.623Z,6.20
2022-09-05T06:52:55.745Z,5.90
2022-09-05T06:55:40.270Z,6.72
2022-09-05T06:58:27.898Z,8.07
2022-09-05T07:01:02.407Z,9.30
2022-09-05T07:04:33.346Z,9.77
2022-09-05T07:07:23.093Z,11.20
2022-09-05T07:10:37.864Z,11.18
2022-09-05T07:13:28.027Z,9.20
2022-09-05T07:16:16.403Z,10.23
2022-09-05T07:19:12.264Z,8.20
2022-09-05T07:21:55.249Z,7.28
2022-09-05T07:24:41.802Z,8.80
2022-09-05T07:27:41.886Z,9.85
2022-09-05T07:30:22.917Z,15.43
2022-09-05T07:32:53.051Z,18.02
2022-09-05T07:35:29.315Z,24.42
2022-09-05T07:38:22.662Z,28.25
2022-09-05T07:41:18.382Z,33.80
2022-09-05T07:43:48.860Z,37.60
2022-09-05T07:46:26.383Z,40.05
2022-09-05T07:49:07.758Z,46.70
2022-09-05T07:55:10.986Z,42.45
2022-09-05T07:57:01.150Z,40.72
2022-09-05T07:57:31.674Z,53.85
2022-09-05T08:00:25.651Z,72.97
2022-09-05T08:02:55.095Z,70.53
2022-09-05T08:05:34.247Z,86.47
2022-09-05T08:08:08.339Z,91.28
2022-09-05T08:11:22.511Z,97.70
2022-09-05T08:13:46.455Z,91.45
2022-09-05T08:16:24.158Z,91.47
2022-09-05T08:18:53.138Z,118.03
2022-09-05T08:21:39.775Z,112.30
2022-09-05T08:24:13.780Z,139.23
2022-09-05T08:29:39.701Z,102.60
2022-09-05T08:32:10.651Z,95.28
2022-09-05T08:34:56.658Z,125.25
2022-09-05T08:37:26.109Z,129.30
2022-09-05T08:40:10.859Z,134.07
2022-09-05T08:44:24.437Z,180.43
2022-09-05T08:46:40.700Z,146.68
2022-09-05T08:49:11.321Z,251.20
2022-09-05T08:51:55.401Z,186.15
2022-09-05T08:54:32.068Z,165.85
2022-09-05T08:57:07.262Z,141.98
2022-09-05T08:59:36.655Z,176.10
2022-09-05T09:02:52.028Z,143.27
2022-09-05T09:06:12.253Z,138.07
2022-09-05T09:09:16.586Z,213.10
2022-09-05T09:12:03.330Z,166.25
2022-09-05T09:15:03.347Z,157.30
2022-09-05T09:17:44.550Z,207.77
2022-09-05T09:20:19.852Z,195.68
2022-09-05T09:22:58.694Z,196.30
2022-09-05T09:25:49.267Z,198.75
2022-09-05T09:28:47.986Z,192.05
2022-09-05T09:31:31.371Z,195.07
2022-09-05T09:34:06.977Z,251.35
2022-09-05T09:36:55.369Z,207.45
2022-09-05T09:39:39.301Z,191.52
2022-09-05T09:42:33.191Z,179.88
2022-09-05T09:45:27.874Z,187.50
2022-09-05T09:48:32.198Z,167.65
2022-09-05T09:51:05.124Z,201.63
2022-09-05T09:53:50.280Z,185.02
2022-09-05T09:56:48.002Z,179.20
2022-09-05T09:59:33.233Z,164.23
2022-09-05T10:04:31.282Z,165.63
2022-09-05T10:10:45.620Z,148.52
2022-09-05T10:10:46.170Z,182.95
2022-09-05T10:12:23.162Z,185.20
2022-09-05T10:15:30.516Z,208.57
2022-09-05T10:18:21.885Z,169.93
2022-09-05T10:21:15.659Z,174.40
2022-09-05T10:24:04.656Z,160.60
2022-09-05T10:26:37.086Z,167.70
2022-09-05T10:29:35.000Z,171.88
2022-09-05T10:35:07.966Z,165.00
2022-09-05T10:35:22.284Z,152.60
2022-09-05T10:38:10.743Z,162.77
2022-09-05T10:40:51.428Z,195.63
2022-09-05T10:43:30.116Z,142.32
2022-09-05T10:45:56.745Z,172.88
2022-09-05T10:48:52.915Z,172.98
2022-09-05T10:51:27.919Z,118.88
2022-09-05T10:53:58.699Z,103.63
2022-09-05T10:56:32.031Z,98.68
2022-09-05T10:59:38.737Z,83.90
2022-09-05T11:02:29.728Z,84.57
2022-09-05T11:04:50.579Z,81.05
2022-09-05T11:07:35.592Z,81.03
2022-09-05T11:10:10.176Z,73.72
2022-09-05T11:13:03.582Z,65.90
2022-09-05T11:15:33.969Z,66.82
2022-09-05T11:18:09.819Z,68.90
2022-09-05T11:20:54.647Z,68.45
2022-09-05T11:23:46.213Z,62.65
2022-09-05T11:26:54.526Z,75.45
2022-09-05T11:29:41.392Z,61.58
2022-09-05T11:35:46.709Z,55.03
2022-09-05T11:39:53.714Z,54.72
2022-09-05T11:39:59.041Z,55.38
2022-09-05T11:41:31.234Z,55.67
2022-09-05T11:44:26.131Z,54.17
2022-09-05T11:47:29.807Z,61.60
2022-09-05T11:50:27.448Z,55.35
2022-09-05T11:53:05.248Z,50.58
2022-09-05T11:55:58.633Z,40.83
2022-09-05T11:58:45.033Z,34.47
2022-09-05T12:01:41.544Z,33.75
2022-09-05T12:04:20.450Z,28.25
2022-09-05T12:07:27.065Z,27.35
2022-09-05T12:09:56.759Z,27.80
2022-09-05T12:12:43.447Z,24.17
2022-09-05T12:16:07.324Z,24.85
2022-09-05T12:19:18.763Z,24.95
2022-09-05T12:22:09.023Z,24.83
2022-09-05T12:26:14.118Z,26.48
2022-09-05T12:29:26.671Z,24.70
2022-09-05T12:32:50.618Z,24.67
2022-09-05T12:36:04.141Z,22.45
2022-09-05T12:40:43.240Z,23.25
2022-09-05T12:41:37.998Z,21.92
2022-09-05T12:44:06.050Z,21.23
2022-09-05T12:46:02.282Z,20.63
2022-09-05T12:48:39.253Z,20.92
2022-09-05T12:51:45.457Z,20.20
2022-09-05T12:54:24.556Z,21.38
2022-09-05T13:00:54.122Z,19.00
2022-09-05T13:03:01.183Z,19.60
2022-09-05T13:03:05.725Z,19.88
2022-09-05T13:05:46.491Z,22.53
2022-09-05T13:08:21.223Z,19.83
2022-09-05T13:14:47.446Z,23.83
2022-09-05T13:14:55.454Z,27.25
2022-09-05T13:16:43.913Z,19.48
2022-09-05T13:19:43.462Z,19.05
2022-09-05T13:22:14.706Z,20.48
2022-09-05T13:24:45.647Z,19.77
2022-09-05T13:27:16.114Z,19.40
2022-09-05T13:31:59.644Z,19.13
2022-09-05T13:37:59.938Z,19.52
2022-09-05T13:38:09.896Z,18.70
2022-09-05T13:39:02.078Z,19.83
2022-09-05T13:41:41.991Z,20.65
2022-09-05T13:44:27.488Z,19.95
2022-09-05T13:47:02.019Z,21.13
2022-09-05T13:49:44.801Z,22.02
2022-09-05T13:52:34.506Z,20.73
2022-09-05T13:55:25.163Z,22.80
2022-09-05T13:58:05.120Z,25.10
2022-09-05T14:00:40.499Z,25.40
2022-09-05T14:05:56.484Z,30.80
2022-09-05T14:11:55.835Z,38.40
2022-09-05T14:20:28.248Z,42.78
2022-09-05T14:23:24.293Z,43.88
2022-09-05T14:26:00.136Z,48.45
2022-09-05T14:28:46.622Z,42.45
2022-09-05T14:37:37.007Z,38.33
2022-09-05T14:37:42.860Z,30.40
2022-09-05T14:37:49.008Z,27.25
2022-09-05T14:40:35.302Z,27.92
2022-09-05T14:43:26.884Z,26.08
2022-09-05T14:46:07.318Z,25.27
2022-09-05T14:49:05.552Z,23.15
2022-09-05T14:51:46.518Z,23.88
2022-09-05T15:02:38.613Z,22.88
2022-09-05T15:02:49.129Z,22.30
2022-09-05T15:03:04.571Z,21.80
2022-09-05T15:05:32.014Z,20.67
2022-09-05T15:08:26.932Z,20.95
2022-09-05T15:12:15.727Z,21.70
2022-09-05T15:14:11.160Z,20.60
2022-09-05T15:16:43.589Z,20.42
2022-09-05T15:19:11.119Z,21.13
2022-09-05T15:21:41.334Z,21.27
2022-09-05T15:24:15.758Z,19.58
2022-09-05T15:26:53.544Z,21.77
2022-09-05T15:29:26.726Z,21.08
2022-09-05T15:32:11.886Z,20.77
2022-09-05T15:34:39.080Z,20.13
2022-09-05T15:37:40.392Z,21.10
2022-09-05T15:40:22.590Z,20.20
2022-09-05T15:42:53.435Z,20.48
2022-09-05T15:45:46.931Z,21.55
2022-09-05T15:48:26.278Z,20.13
2022-09-05T15:51:07.351Z,19.92
2022-09-05T15:53:37.648Z,20.98
2022-09-05T15:56:10.099Z,21.50
2022-09-05T15:58:53.490Z,19.90
2022-09-05T16:01:59.854Z,20.83
2022-09-05T16:10:31.286Z,20.48
2022-09-05T16:10:42.877Z,20.27
2022-09-05T16:10:45.440Z,20.33
2022-09-05T16:13:12.939Z,20.67
2022-09-05T16:20:27.806Z,21.50
2022-09-05T16:23:25.131Z,20.65
2022-09-05T16:23:29.518Z,20.92
2022-09-05T16:24:45.121Z,21.30
2022-09-05T16:27:17.989Z,22.45
2022-09-05T16:29:50.556Z,22.02
2022-09-05T16:32:28.624Z,21.08
2022-09-05T16:35:00.364Z,21.80
2022-09-05T16:37:35.771Z,24.15
2022-09-05T16:40:18.529Z,26.17
2022-09-05T16:42:49.441Z,22.47
2022-09-05T16:45:29.588Z,23.42
2022-09-05T16:48:34.370Z,25.70
2022-09-05T16:51:16.871Z,26.13
2022-09-05T16:54:10.380Z,35.90
2022-09-05T16:57:24.245Z,35.17
2022-09-05T16:59:51.301Z,38.17
2022-09-05T17:02:38.721Z,37.67
2022-09-05T17:05:39.279Z,34.13
2022-09-05T17:08:35.584Z,28.90
2022-09-05T17:11:12.273Z,26.85
2022-09-05T17:13:54.444Z,23.13
2022-09-05T17:16:56.424Z,23.08
2022-09-05T17:19:33.749Z,29.75
2022-09-05T17:23:39.148Z,40.45
2022-09-05T17:29:30.887Z,37.78
2022-09-05T17:29:31.063Z,43.72
2022-09-05T17:31:55.903Z,41.10
2022-09-05T17:34:30.025Z,42.80
2022-09-05T17:37:22.543Z,44.45
2022-09-05T17:40:10.126Z,42.70
2022-09-05T17:42:36.858Z,45.13
2022-09-05T17:45:26.454Z,39.35
2022-09-05T17:47:57.609Z,38.15
2022-09-05T17:50:28.205Z,31.45
2022-09-05T17:53:26.062Z,30.83
2022-09-05T17:56:09.399Z,34.20
2022-09-05T17:58:48.991Z,50.30
2022-09-05T18:01:26.890Z,71.25
2022-09-05T18:04:18.011Z,91.10
2022-09-05T18:06:49.015Z,147.27
2022-09-05T18:09:42.870Z,136.07
2022-09-05T18:13:31.596Z,159.75
2022-09-05T18:15:35.631Z,190.10
2022-09-05T18:18:43.658Z,216.30
2022-09-05T18:24:12.822Z,274.88
2022-09-05T18:26:48.847Z,316.50
2022-09-05T18:29:58.850Z,424.48
2022-09-05T18:33:55.297Z,521.28
2022-09-05T18:36:02.255Z,596.72
2022-09-05T18:38:50.244Z,650.17
2022-09-05T18:41:24.749Z,629.33
2022-09-05T18:43:54.679Z,658.22
2022-09-05T18:46:49.800Z,628.22
2022-09-05T18:50:23.817Z,582.75
2022-09-05T18:52:24.236Z,587.40
2022-09-05T18:56:11.664Z,593.45
2022-09-05T18:57:48.651Z,603.58
2022-09-05T19:00:24.783Z,603.58
2022-09-05T19:03:07.709Z,623.67
2022-09-05T19:06:35.589Z,622.65
2022-09-05T19:08:56.765Z,657.63
2022-09-05T19:11:53.347Z,674.20
2022-09-05T19:14:36.395Z,664.38
2022-09-05T19:17:30.137Z,676.95
2022-09-05T19:20:32.486Z,667.90
2022-09-05T19:23:10.969Z,654.55
2022-09-05T19:25:41.331Z,634.95
2022-09-05T19:35:14.092Z,654.67
2022-09-05T19:36:53.410Z,612.38
2022-09-05T19:37:09.791Z,589.40
2022-09-05T19:37:42.878Z,578.08
2022-09-05T19:47:25.412Z,574.67
2022-09-05T19:47:43.623Z,546.42
2022-09-05T19:47:43.634Z,526.50
2022-09-05T19:49:07.463Z,555.10
2022-09-05T19:51:34.503Z,565.30
2022-09-05T19:54:04.610Z,593.83
2022-09-05T19:56:44.370Z,560.55
2022-09-05T19:59:25.207Z,546.95
2022-09-05T20:01:53.106Z,539.65
2022-09-05T20:04:21.077Z,548.17
2022-09-05T20:06:49.654Z,513.83
2022-09-05T20:09:19.018Z,521.53
2022-09-05T20:11:50.791Z,513.45
2022-09-05T20:14:18.673Z,504.15
2022-09-05T20:16:48.135Z,447.98
2022-09-05T20:19:34.404Z,426.83
2022-09-05T20:22:17.409Z,450.40
2022-09-05T20:24:52.536Z,469.13
2022-09-05T20:27:19.432Z,440.40
2022-09-05T20:29:58.050Z,402.35
2022-09-05T20:32:39.441Z,426.15
2022-09-05T20:37:24.065Z,420.40
2022-09-05T20:43:20.297Z,414.40
2022-09-05T20:43:31.288Z,392.00
2022-09-05T20:43:53.116Z,379.33
2022-09-05T20:50:26.083Z,376.87
2022-09-05T20:54:08.675Z,346.92
2022-09-05T20:54:27.128Z,342.90
2022-09-05T20:55:40.196Z,328.23
2022-09-05T20:58:11.490Z,312.73
2022-09-05T21:01:15.708Z,312.00
2022-09-05T21:03:36.604Z,289.75
2022-09-05T21:06:23.030Z,298.17
2022-09-05T21:08:55.823Z,306.15
2022-09-05T21:11:32.597Z,283.40
2022-09-05T21:14:03.419Z,278.15
2022-09-05T21:16:44.884Z,253.43
2022-09-05T21:19:29.447Z,246.02
2022-09-05T21:24:33.441Z,216.05
2022-09-05T21:27:21.827Z,221.23
2022-09-05T21:29:53.025Z,212.90
2022-09-05T21:32:27.975Z,208.48
2022-09-05T21:35:09.250Z,209.30
2022-09-05T21:37:53.587Z,196.10
2022-09-05T21:40:21.301Z,186.40
2022-09-05T21:46:31.672Z,171.85
2022-09-05T21:47:44.916Z,157.80
2022-09-05T21:48:24.133Z,144.75
2022-09-05T21:50:57.262Z,132.05
2022-09-05T21:57:16.884Z,121.43
2022-09-05T21:59:21.755Z,108.38
2022-09-05T22:02:08.387Z,84.07
2022-09-05T22:04:35.622Z,78.10
2022-09-05T22:07:08.090Z,80.40
2022-09-05T22:09:34.611Z,74.28
2022-09-05T22:12:09.692Z,69.68
2022-09-05T22:14:47.784Z,66.78
2022-09-05T22:17:14.443Z,66.65
2022-09-05T22:19:41.254Z,66.93
2022-09-05T22:22:16.941Z,57.05
2022-09-05T22:24:55.383Z,59.22
2022-09-05T22:27:25.936Z,60.55
2022-09-05T22:29:52.905Z,53.88
2022-09-05T22:32:34.769Z,60.13
2022-09-05T22:35:27.283Z,49.88
2022-09-05T22:38:00.257Z,51.80
2022-09-05T22:40:29.045Z,53.38
2022-09-05T22:43:00.845Z,57.03
2022-09-05T22:45:28.798Z,55.80
2022-09-05T22:47:55.506Z,60.42
2022-09-05T22:50:23.015Z,50.58
2022-09-05T22:52:50.119Z,49.28
2022-09-05T22:55:17.438Z,52.05
2022-09-05T22:57:44.015Z,54.53
2022-09-05T23:00:11.207Z,50.40
2022-09-05T23:02:37.763Z,50.55
2022-09-05T23:05:05.618Z,46.47
2022-09-05T23:07:32.503Z,53.95
2022-09-05T23:09:59.476Z,48.95
2022-09-05T23:12:26.153Z,51.83
2022-09-05T23:14:52.811Z,50.28
2022-09-05T23:17:19.320Z,48.88
2022-09-05T23:19:45.850Z,48.28
2022-09-05T23:22:12.392Z,50.10
2022-09-05T23:24:38.911Z,48.70
2022-09-05T23:27:05.475Z,47.63
2022-09-05T23:29:32.005Z,48.60
2022-09-05T23:31:58.528Z,46.92
2022-09-05T23:34:25.632Z,49.80
2022-09-05T23:36:52.182Z,48.60
2022-09-05T23:39:18.734Z,48.88
2022-09-05T23:41:45.271Z,48.10
2022-09-05T23:44:12.031Z,48.65
2022-09-05T23:46:40.421Z,45.53
2022-09-05T23:49:07.166Z,48.92
2022-09-05T23:51:33.784Z,48.53
2022-09-05T23:54:00.338Z,48.15
2022-09-05T23:56:26.882Z,46.38
2022-09-05T23:58:53.431Z,51.25
